sensor_id;sensor_type;location;lat;lon;timestamp;P1;durP1;ratioP1;P2;durP2;ratioP2
55663;SDS011;41540;57.880;12.164;2023-04-06T00:09:46;4.30;;;3.10;;
55663;SDS011;41540;57.880;12.164;2023-04-06T00:19:46;2.13;;;1.88;;
55663;SDS011;41540;57.880;12.164;2023-04-06T00:29:46;2.30;;;2.10;;
55663;SDS011;41540;57.880;12.164;2023-04-06T00:39:46;3.03;;;2.72;;
55663;SDS011;41540;57.880;12.164;2023-04-06T00:49:47;2.55;;;2.33;;
55663;SDS011;41540;57.880;12.164;2023-04-06T00:59:47;3.13;;;2.70;;
55663;SDS011;41540;57.880;12.164;2023-04-06T01:09:47;3.70;;;3.33;;
55663;SDS011;41540;57.880;12.164;2023-04-06T01:19:48;2.78;;;2.30;;
55663;SDS011;41540;57.880;12.164;2023-04-06T01:29:49;3.00;;;2.72;;
55663;SDS011;41540;57.880;12.164;2023-04-06T01:39:50;4.47;;;2.70;;
55663;SDS011;41540;57.880;12.164;2023-04-06T01:49:50;3.42;;;3.13;;
55663;SDS011;41540;57.880;12.164;2023-04-06T01:59:50;3.63;;;3.33;;
55663;SDS011;41540;57.880;12.164;2023-04-06T02:09:53;3.10;;;2.80;;
55663;SDS011;41540;57.880;12.164;2023-04-06T02:19:53;2.75;;;2.55;;
55663;SDS011;41540;57.880;12.164;2023-04-06T02:29:54;3.10;;;2.85;;
55663;SDS011;41540;57.880;12.164;2023-04-06T02:39:54;3.75;;;3.45;;
55663;SDS011;41540;57.880;12.164;2023-04-06T02:49:54;2.80;;;2.60;;
55663;SDS011;41540;57.880;12.164;2023-04-06T02:59:55;5.45;;;2.60;;
55663;SDS011;41540;57.880;12.164;2023-04-06T03:09:55;3.30;;;3.00;;
55663;SDS011;41540;57.880;12.164;2023-04-06T03:19:55;2.97;;;2.78;;
55663;SDS011;41540;57.880;12.164;2023-04-06T03:29:55;3.47;;;3.17;;
55663;SDS011;41540;57.880;12.164;2023-04-06T03:39:56;3.47;;;2.92;;
55663;SDS011;41540;57.880;12.164;2023-04-06T03:49:56;7.57;;;3.08;;
55663;SDS011;41540;57.880;12.164;2023-04-06T03:59:56;3.30;;;3.00;;
55663;SDS011;41540;57.880;12.164;2023-04-06T04:09:57;3.92;;;3.58;;
55663;SDS011;41540;57.880;12.164;2023-04-06T04:19:57;3.15;;;2.85;;
55663;SDS011;41540;57.880;12.164;2023-04-06T04:29:57;4.40;;;3.33;;
55663;SDS011;41540;57.880;12.164;2023-04-06T04:39:57;14.90;;;4.53;;
55663;SDS011;41540;57.880;12.164;2023-04-06T04:49:58;3.40;;;2.97;;
55663;SDS011;41540;57.880;12.164;2023-04-06T04:59:58;3.28;;;2.95;;
55663;SDS011;41540;57.880;12.164;2023-04-06T05:09:58;3.03;;;2.75;;
55663;SDS011;41540;57.880;12.164;2023-04-06T05:19:59;3.35;;;3.05;;
55663;SDS011;41540;57.880;12.164;2023-04-06T05:29:59;3.25;;;2.95;;
55663;SDS011;41540;57.880;12.164;2023-04-06T05:40:00;6.97;;;4.00;;
55663;SDS011;41540;57.880;12.164;2023-04-06T05:50:00;3.20;;;2.90;;
55663;SDS011;41540;57.880;12.164;2023-04-06T06:00:01;3.03;;;2.67;;
55663;SDS011;41540;57.880;12.164;2023-04-06T06:10:03;2.38;;;2.17;;
55663;SDS011;41540;57.880;12.164;2023-04-06T06:20:05;1.73;;;1.63;;
55663;SDS011;41540;57.880;12.164;2023-04-06T06:30:05;2.28;;;2.03;;
55663;SDS011;41540;57.880;12.164;2023-04-06T06:40:06;2.28;;;1.95;;
55663;SDS011;41540;57.880;12.164;2023-04-06T06:50:06;2.10;;;1.93;;
55663;SDS011;41540;57.880;12.164;2023-04-06T07:00:07;2.15;;;1.95;;
55663;SDS011;41540;57.880;12.164;2023-04-06T07:10:08;2.00;;;1.90;;
55663;SDS011;41540;57.880;12.164;2023-04-06T07:20:08;2.30;;;2.10;;
55663;SDS011;41540;57.880;12.164;2023-04-06T07:30:09;1.65;;;1.55;;
55663;SDS011;41540;57.880;12.164;2023-04-06T07:40:10;2.10;;;1.58;;
55663;SDS011;41540;57.880;12.164;2023-04-06T07:50:10;1.48;;;1.38;;
55663;SDS011;41540;57.880;12.164;2023-04-06T08:00:12;1.67;;;1.58;;
55663;SDS011;41540;57.880;12.164;2023-04-06T08:10:13;1.55;;;1.45;;
55663;SDS011;41540;57.880;12.164;2023-04-06T08:20:13;1.75;;;1.65;;
55663;SDS011;41540;57.880;12.164;2023-04-06T08:30:13;1.88;;;1.67;;
55663;SDS011;41540;57.880;12.164;2023-04-06T08:40:15;2.40;;;1.70;;
55663;SDS011;41540;57.880;12.164;2023-04-06T08:50:16;1.85;;;1.67;;
55663;SDS011;41540;57.880;12.164;2023-04-06T09:00:17;2.17;;;1.30;;
55663;SDS011;41540;57.880;12.164;2023-04-06T09:10:17;2.63;;;1.90;;
55663;SDS011;41540;57.880;12.164;2023-04-06T09:20:22;2.90;;;2.20;;
55663;SDS011;41540;57.880;12.164;2023-04-06T09:30:22;1.60;;;1.50;;
55663;SDS011;41540;57.880;12.164;2023-04-06T09:40:24;1.88;;;1.77;;
55663;SDS011;41540;57.880;12.164;2023-04-06T09:50:25;2.28;;;2.00;;
55663;SDS011;41540;57.880;12.164;2023-04-06T10:00:26;2.13;;;1.70;;
55663;SDS011;41540;57.880;12.164;2023-04-06T10:10:28;4.03;;;2.95;;
55663;SDS011;41540;57.880;12.164;2023-04-06T10:20:47;6.23;;;3.07;;
55663;SDS011;41540;57.880;12.164;2023-04-06T10:30:49;4.90;;;3.65;;
55663;SDS011;41540;57.880;12.164;2023-04-06T10:40:49;5.03;;;4.53;;
55663;SDS011;41540;57.880;12.164;2023-04-06T10:50:51;9.65;;;5.97;;
55663;SDS011;41540;57.880;12.164;2023-04-06T11:00:52;14.25;;;7.70;;
55663;SDS011;41540;57.880;12.164;2023-04-06T11:11:06;7.22;;;5.75;;
55663;SDS011;41540;57.880;12.164;2023-04-06T11:21:07;10.50;;;5.83;;
55663;SDS011;41540;57.880;12.164;2023-04-06T11:31:07;5.97;;;5.03;;
55663;SDS011;41540;57.880;12.164;2023-04-06T11:41:08;5.55;;;5.03;;
55663;SDS011;41540;57.880;12.164;2023-04-06T11:51:08;12.40;;;6.13;;
55663;SDS011;41540;57.880;12.164;2023-04-06T12:01:08;6.30;;;5.47;;
55663;SDS011;41540;57.880;12.164;2023-04-06T12:11:08;8.27;;;5.28;;
55663;SDS011;41540;57.880;12.164;2023-04-06T12:21:09;8.15;;;4.50;;
55663;SDS011;41540;57.880;12.164;2023-04-06T12:31:14;6.60;;;5.82;;
55663;SDS011;41540;57.880;12.164;2023-04-06T12:41:14;4.30;;;3.90;;
55663;SDS011;41540;57.880;12.164;2023-04-06T12:51:15;12.48;;;4.75;;
55663;SDS011;41540;57.880;12.164;2023-04-06T13:01:17;5.78;;;3.55;;
55663;SDS011;41540;57.880;12.164;2023-04-06T13:11:17;5.18;;;3.83;;
55663;SDS011;41540;57.880;12.164;2023-04-06T13:21:20;3.25;;;2.95;;
55663;SDS011;41540;57.880;12.164;2023-04-06T13:31:20;4.78;;;3.05;;
55663;SDS011;41540;57.880;12.164;2023-04-06T13:41:21;3.53;;;2.95;;
55663;SDS011;41540;57.880;12.164;2023-04-06T13:51:22;4.60;;;2.97;;
55663;SDS011;41540;57.880;12.164;2023-04-06T14:01:22;4.00;;;2.58;;
55663;SDS011;41540;57.880;12.164;2023-04-06T14:11:22;6.72;;;3.28;;
55663;SDS011;41540;57.880;12.164;2023-04-06T14:21:22;4.88;;;2.25;;
55663;SDS011;41540;57.880;12.164;2023-04-06T14:31:23;5.57;;;2.83;;
55663;SDS011;41540;57.880;12.164;2023-04-06T14:41:24;5.70;;;2.25;;
55663;SDS011;41540;57.880;12.164;2023-04-06T14:51:25;10.27;;;2.80;;
55663;SDS011;41540;57.880;12.164;2023-04-06T15:01:28;2.33;;;1.80;;
55663;SDS011;41540;57.880;12.164;2023-04-06T15:11:28;1.65;;;1.55;;
55663;SDS011;41540;57.880;12.164;2023-04-06T15:21:28;10.05;;;1.80;;
55663;SDS011;41540;57.880;12.164;2023-04-06T15:31:30;2.13;;;1.88;;
55663;SDS011;41540;57.880;12.164;2023-04-06T15:41:30;1.60;;;1.42;;
55663;SDS011;41540;57.880;12.164;2023-04-06T15:51:31;1.85;;;1.75;;
55663;SDS011;41540;57.880;12.164;2023-04-06T16:01:32;2.33;;;1.77;;
55663;SDS011;41540;57.880;12.164;2023-04-06T16:11:32;2.03;;;1.55;;
55663;SDS011;41540;57.880;12.164;2023-04-06T16:21:33;2.55;;;1.70;;
55663;SDS011;41540;57.880;12.164;2023-04-06T16:31:33;4.18;;;1.60;;
55663;SDS011;41540;57.880;12.164;2023-04-06T16:41:33;2.70;;;1.92;;
55663;SDS011;41540;57.880;12.164;2023-04-06T16:51:33;1.98;;;1.88;;
55663;SDS011;41540;57.880;12.164;2023-04-06T17:01:34;7.25;;;1.70;;
55663;SDS011;41540;57.880;12.164;2023-04-06T17:11:34;2.75;;;2.55;;
55663;SDS011;41540;57.880;12.164;2023-04-06T17:21:34;10.85;;;2.83;;
55663;SDS011;41540;57.880;12.164;2023-04-06T17:31:35;4.00;;;2.08;;
55663;SDS011;41540;57.880;12.164;2023-04-06T17:41:35;3.55;;;2.10;;
55663;SDS011;41540;57.880;12.164;2023-04-06T17:51:35;1.88;;;1.77;;
55663;SDS011;41540;57.880;12.164;2023-04-06T18:01:37;4.18;;;2.42;;
55663;SDS011;41540;57.880;12.164;2023-04-06T18:11:38;2.80;;;2.15;;
55663;SDS011;41540;57.880;12.164;2023-04-06T18:21:38;2.15;;;1.95;;
55663;SDS011;41540;57.880;12.164;2023-04-06T18:31:38;3.70;;;2.53;;
55663;SDS011;41540;57.880;12.164;2023-04-06T18:41:38;1.70;;;1.60;;
55663;SDS011;41540;57.880;12.164;2023-04-06T18:51:39;2.00;;;1.80;;
55663;SDS011;41540;57.880;12.164;2023-04-06T19:01:42;2.05;;;1.90;;
55663;SDS011;41540;57.880;12.164;2023-04-06T19:11:44;3.85;;;2.22;;
55663;SDS011;41540;57.880;12.164;2023-04-06T19:21:45;3.90;;;2.13;;
55663;SDS011;41540;57.880;12.164;2023-04-06T19:31:45;1.73;;;1.58;;
55663;SDS011;41540;57.880;12.164;2023-04-06T19:41:45;1.98;;;1.75;;
55663;SDS011;41540;57.880;12.164;2023-04-06T19:51:46;2.97;;;2.70;;
55663;SDS011;41540;57.880;12.164;2023-04-06T20:01:46;3.70;;;3.35;;
55663;SDS011;41540;57.880;12.164;2023-04-06T20:11:46;8.80;;;4.82;;
55663;SDS011;41540;57.880;12.164;2023-04-06T20:21:49;4.75;;;4.22;;
55663;SDS011;41540;57.880;12.164;2023-04-06T20:31:50;6.00;;;3.80;;
55663;SDS011;41540;57.880;12.164;2023-04-06T20:41:50;2.63;;;2.42;;
55663;SDS011;41540;57.880;12.164;2023-04-06T20:51:51;3.00;;;2.70;;
55663;SDS011;41540;57.880;12.164;2023-04-06T21:01:52;7.93;;;6.30;;
55663;SDS011;41540;57.880;12.164;2023-04-06T21:11:52;12.73;;;7.70;;
55663;SDS011;41540;57.880;12.164;2023-04-06T21:21:53;11.77;;;9.02;;
55663;SDS011;41540;57.880;12.164;2023-04-06T21:31:53;14.23;;;8.52;;
55663;SDS011;41540;57.880;12.164;2023-04-06T21:41:54;9.27;;;6.90;;
55663;SDS011;41540;57.880;12.164;2023-04-06T21:51:55;11.88;;;6.88;;
55663;SDS011;41540;57.880;12.164;2023-04-06T22:01:55;8.48;;;7.13;;
55663;SDS011;41540;57.880;12.164;2023-04-06T22:11:55;10.55;;;5.90;;
55663;SDS011;41540;57.880;12.164;2023-04-06T22:21:56;8.10;;;6.18;;
55663;SDS011;41540;57.880;12.164;2023-04-06T22:31:56;7.18;;;6.40;;
55663;SDS011;41540;57.880;12.164;2023-04-06T22:41:56;5.88;;;5.20;;
55663;SDS011;41540;57.880;12.164;2023-04-06T22:51:56;9.52;;;4.72;;
55663;SDS011;41540;57.880;12.164;2023-04-06T23:01:57;6.65;;;5.00;;
55663;SDS011;41540;57.880;12.164;2023-04-06T23:11:57;10.82;;;5.60;;
55663;SDS011;41540;57.880;12.164;2023-04-06T23:21:57;6.05;;;4.60;;
55663;SDS011;41540;57.880;12.164;2023-04-06T23:31:58;8.82;;;4.55;;
55663;SDS011;41540;57.880;12.164;2023-04-06T23:41:59;4.05;;;3.72;;
55663;SDS011;41540;57.880;12.164;2023-04-06T23:52:00;3.78;;;3.35;;
